sensor_id;sensor_type;location;lat;lon;timestamp;pressure;altitude;pressure_sealevel;temperature;humidity
62103;BME280;48077;48.104;11.702;2023-07-08T00:00:48;95733.72;;;14.22;73.99
62103;BME280;48077;48.104;11.702;2023-07-08T00:07:40;95726.03;;;14.08;74.41
62103;BME280;48077;48.104;11.702;2023-07-08T00:10:24;95724.09;;;14.04;74.61
62103;BME280;48077;48.104;11.702;2023-07-08T00:12:50;95734.25;;;14.02;75.21
62103;BME280;48077;48.104;11.702;2023-07-08T00:15:14;95731.28;;;13.98;75.20
62103;BME280;48077;48.104;11.702;2023-07-08T00:17:39;95737.34;;;13.93;75.74
62103;BME280;48077;48.104;11.702;2023-07-08T00:20:14;95715.59;;;13.90;75.64
62103;BME280;48077;48.104;11.702;2023-07-08T00:22:41;95710.97;;;13.85;76.00
62103;BME280;48077;48.104;11.702;2023-07-08T00:25:07;95704.25;;;13.83;76.20
62103;BME280;48077;48.104;11.702;2023-07-08T00:27:31;95707.84;;;13.93;75.87
62103;BME280;48077;48.104;11.702;2023-07-08T00:29:54;95697.66;;;13.90;76.08
62103;BME280;48077;48.104;11.702;2023-07-08T00:32:18;95711.66;;;13.97;76.64
62103;BME280;48077;48.104;11.702;2023-07-08T00:34:41;95707.13;;;13.98;76.73
62103;BME280;48077;48.104;11.702;2023-07-08T00:37:05;95711.66;;;13.97;76.98
62103;BME280;48077;48.104;11.702;2023-07-08T00:39:32;95707.13;;;13.98;77.31
62103;BME280;48077;48.104;11.702;2023-07-08T00:41:55;95710.06;;;13.96;77.42
62103;BME280;48077;48.104;11.702;2023-07-08T00:44:19;95709.97;;;13.91;77.19
62103;BME280;48077;48.104;11.702;2023-07-08T00:46:57;95711.53;;;13.87;77.21
62103;BME280;48077;48.104;11.702;2023-07-08T00:49:41;95711.16;;;13.79;77.56
62103;BME280;48077;48.104;11.702;2023-07-08T00:54:39;95716.31;;;13.85;78.14
62103;BME280;48077;48.104;11.702;2023-07-08T00:57:03;95717.41;;;13.84;78.08
62103;BME280;48077;48.104;11.702;2023-07-08T00:59:32;95721.13;;;13.83;78.13
62103;BME280;48077;48.104;11.702;2023-07-08T01:01:58;95719.84;;;13.86;78.41
62103;BME280;48077;48.104;11.702;2023-07-08T01:04:28;95715.03;;;13.88;79.09
62103;BME280;48077;48.104;11.702;2023-07-08T01:06:56;95709.84;;;13.81;78.92
62103;BME280;48077;48.104;11.702;2023-07-08T01:09:21;95711.41;;;13.77;78.90
62103;BME280;48077;48.104;11.702;2023-07-08T01:11:44;95720.09;;;13.84;79.50
62103;BME280;48077;48.104;11.702;2023-07-08T01:14:11;95713.66;;;13.85;79.66
62103;BME280;48077;48.104;11.702;2023-07-08T01:16:35;95712.38;;;13.88;80.50
62103;BME280;48077;48.104;11.702;2023-07-08T01:19:00;95716.41;;;13.90;80.17
62103;BME280;48077;48.104;11.702;2023-07-08T01:21:38;95719.09;;;13.90;80.02
62103;BME280;48077;48.104;11.702;2023-07-08T01:24:09;95706.25;;;13.92;79.85
62103;BME280;48077;48.104;11.702;2023-07-08T01:26:36;95701.38;;;13.89;80.09
62103;BME280;48077;48.104;11.702;2023-07-08T01:29:02;95710.63;;;13.99;79.67
62103;BME280;48077;48.104;11.702;2023-07-08T01:31:26;95706.81;;;13.94;79.50
62103;BME280;48077;48.104;11.702;2023-07-08T01:33:51;95714.66;;;14.01;79.35
62103;BME280;48077;48.104;11.702;2023-07-08T01:36:15;95710.06;;;13.96;79.81
62103;BME280;48077;48.104;11.702;2023-07-08T01:38:39;95705.44;;;13.92;79.92
62103;BME280;48077;48.104;11.702;2023-07-08T01:41:03;95716.47;;;13.95;80.52
62103;BME280;48077;48.104;11.702;2023-07-08T01:43:27;95715.09;;;13.93;80.50
62103;BME280;48077;48.104;11.702;2023-07-08T01:45:51;95728.03;;;13.96;80.66
62103;BME280;48077;48.104;11.702;2023-07-08T01:48:18;95717.72;;;13.88;80.37
62103;BME280;48077;48.104;11.702;2023-07-08T01:50:47;95723.91;;;13.88;80.77
62103;BME280;48077;48.104;11.702;2023-07-08T01:53:16;95720.88;;;13.85;81.04
62103;BME280;48077;48.104;11.702;2023-07-08T01:55:39;95722.19;;;13.82;81.00
62103;BME280;48077;48.104;11.702;2023-07-08T01:58:03;95713.59;;;13.80;81.05
62103;BME280;48077;48.104;11.702;2023-07-08T02:00:26;95718.72;;;13.82;81.12
62103;BME280;48077;48.104;11.702;2023-07-08T02:02:50;95714.09;;;13.77;80.76
62103;BME280;48077;48.104;11.702;2023-07-08T02:05:14;95710.34;;;13.78;81.47
62103;BME280;48077;48.104;11.702;2023-07-08T02:07:38;95714.63;;;13.79;81.42
62103;BME280;48077;48.104;11.702;2023-07-08T02:10:01;95712.22;;;13.77;81.83
62103;BME280;48077;48.104;11.702;2023-07-08T02:12:24;95706.53;;;13.74;81.97
62103;BME280;48077;48.104;11.702;2023-07-08T02:14:48;95706.22;;;13.70;82.17
62103;BME280;48077;48.104;11.702;2023-07-08T02:17:11;95696.47;;;13.64;82.39
62103;BME280;48077;48.104;11.702;2023-07-08T02:19:34;95701.41;;;13.72;82.64
62103;BME280;48077;48.104;11.702;2023-07-08T02:22:00;95699.94;;;13.82;81.57
62103;BME280;48077;48.104;11.702;2023-07-08T02:24:23;95700.31;;;13.90;80.08
62103;BME280;48077;48.104;11.702;2023-07-08T02:26:47;95704.47;;;13.98;79.92
62103;BME280;48077;48.104;11.702;2023-07-08T02:29:10;95694.44;;;13.93;79.90
62103;BME280;48077;48.104;11.702;2023-07-08T02:31:33;95696.31;;;13.93;80.17
62103;BME280;48077;48.104;11.702;2023-07-08T02:33:57;95699.38;;;13.80;80.33
62103;BME280;48077;48.104;11.702;2023-07-08T02:36:21;95701.41;;;13.72;80.70
62103;BME280;48077;48.104;11.702;2023-07-08T02:38:44;95710.94;;;13.63;81.19
62103;BME280;48077;48.104;11.702;2023-07-08T02:41:08;95704.13;;;13.55;82.00
62103;BME280;48077;48.104;11.702;2023-07-08T02:43:31;95700.00;;;13.48;82.63
62103;BME280;48077;48.104;11.702;2023-07-08T02:45:54;95703.41;;;13.43;83.54
62103;BME280;48077;48.104;11.702;2023-07-08T02:48:19;95701.81;;;13.42;83.83
62103;BME280;48077;48.104;11.702;2023-07-08T02:50:44;95706.59;;;13.40;83.91
62103;BME280;48077;48.104;11.702;2023-07-08T02:53:08;95690.75;;;13.39;83.98
62103;BME280;48077;48.104;11.702;2023-07-08T02:55:31;95695.31;;;13.38;83.93
62103;BME280;48077;48.104;11.702;2023-07-08T02:57:55;95698.00;;;13.38;84.56
62103;BME280;48077;48.104;11.702;2023-07-08T03:00:18;95700.66;;;13.38;84.53
62103;BME280;48077;48.104;11.702;2023-07-08T03:02:42;95700.09;;;13.36;84.76
62103;BME280;48077;48.104;11.702;2023-07-08T03:05:05;95700.56;;;13.33;84.79
62103;BME280;48077;48.104;11.702;2023-07-08T03:07:29;95698.84;;;13.27;84.99
62103;BME280;48077;48.104;11.702;2023-07-08T03:09:53;95693.66;;;13.20;85.20
62103;BME280;48077;48.104;11.702;2023-07-08T03:12:16;95698.28;;;13.25;85.41
62103;BME280;48077;48.104;11.702;2023-07-08T03:14:39;95693.19;;;13.23;85.27
62103;BME280;48077;48.104;11.702;2023-07-08T03:17:03;95698.28;;;13.25;85.41
62103;BME280;48077;48.104;11.702;2023-07-08T03:19:27;95688.63;;;13.24;85.38
62103;BME280;48077;48.104;11.702;2023-07-08T03:21:50;95709.19;;;13.35;85.32
62103;BME280;48077;48.104;11.702;2023-07-08T03:24:14;95710.00;;;13.35;85.04
62103;BME280;48077;48.104;11.702;2023-07-08T03:26:41;95698.41;;;13.30;84.83
62103;BME280;48077;48.104;11.702;2023-07-08T03:29:05;95701.09;;;13.30;84.91
62103;BME280;48077;48.104;11.702;2023-07-08T03:31:32;95702.34;;;13.27;85.31
62103;BME280;48077;48.104;11.702;2023-07-08T03:33:55;95687.25;;;13.21;85.73
62103;BME280;48077;48.104;11.702;2023-07-08T03:36:21;95690.25;;;13.25;86.33
62103;BME280;48077;48.104;11.702;2023-07-08T03:38:48;95699.69;;;13.27;86.43
62103;BME280;48077;48.104;11.702;2023-07-08T03:41:12;95689.28;;;13.31;86.47
62103;BME280;48077;48.104;11.702;2023-07-08T03:43:35;95694.75;;;13.36;86.41
62103;BME280;48077;48.104;11.702;2023-07-08T03:45:58;95688.88;;;13.39;86.16
62103;BME280;48077;48.104;11.702;2023-07-08T03:48:22;95698.06;;;13.43;86.02
62103;BME280;48077;48.104;11.702;2023-07-08T03:50:45;95691.91;;;13.43;85.95
62103;BME280;48077;48.104;11.702;2023-07-08T03:53:09;95696.75;;;13.46;85.41
62103;BME280;48077;48.104;11.702;2023-07-08T03:55:32;95683.34;;;13.46;84.94
62103;BME280;48077;48.104;11.702;2023-07-08T03:57:56;95695.63;;;13.59;84.34
62103;BME280;48077;48.104;11.702;2023-07-08T04:00:19;95699.44;;;13.63;83.73
62103;BME280;48077;48.104;11.702;2023-07-08T04:02:44;95694.13;;;13.68;83.67
62103;BME280;48077;48.104;11.702;2023-07-08T04:05:13;95693.69;;;13.76;83.71
62103;BME280;48077;48.104;11.702;2023-07-08T04:07:37;95688.94;;;13.83;83.43
62103;BME280;48077;48.104;11.702;2023-07-08T04:10:01;95671.75;;;13.79;83.00
62103;BME280;48077;48.104;11.702;2023-07-08T04:12:24;95683.47;;;13.95;83.35
62103;BME280;48077;48.104;11.702;2023-07-08T04:14:47;95688.97;;;14.05;83.20
62103;BME280;48077;48.104;11.702;2023-07-08T04:17:11;95697.38;;;14.14;82.69
62103;BME280;48077;48.104;11.702;2023-07-08T04:19:35;95690.47;;;14.18;82.50
62103;BME280;48077;48.104;11.702;2023-07-08T04:22:00;95692.16;;;14.24;83.01
62103;BME280;48077;48.104;11.702;2023-07-08T04:24:24;95686.28;;;14.27;81.66
62103;BME280;48077;48.104;11.702;2023-07-08T04:26:48;95695.47;;;14.31;81.48
62103;BME280;48077;48.104;11.702;2023-07-08T04:29:17;95690.94;;;14.37;81.31
62103;BME280;48077;48.104;11.702;2023-07-08T04:31:41;95704.44;;;14.42;81.94
62103;BME280;48077;48.104;11.702;2023-07-08T04:34:04;95703.34;;;14.43;83.14
62103;BME280;48077;48.104;11.702;2023-07-08T04:36:29;95702.03;;;14.46;82.95
62103;BME280;48077;48.104;11.702;2023-07-08T04:38:52;95691.81;;;14.43;83.03
62103;BME280;48077;48.104;11.702;2023-07-08T04:41:16;95699.34;;;14.46;84.40
62103;BME280;48077;48.104;11.702;2023-07-08T04:43:39;95708.59;;;14.55;85.26
62103;BME280;48077;48.104;11.702;2023-07-08T04:46:04;95709.50;;;14.61;85.88
62103;BME280;48077;48.104;11.702;2023-07-08T04:48:32;95719.78;;;14.69;85.14
62103;BME280;48077;48.104;11.702;2023-07-08T04:50:56;95719.56;;;14.75;83.63
62103;BME280;48077;48.104;11.702;2023-07-08T04:53:20;95737.41;;;14.87;83.49
62103;BME280;48077;48.104;11.702;2023-07-08T04:55:50;95740.63;;;14.89;82.62
62103;BME280;48077;48.104;11.702;2023-07-08T04:58:14;95739.88;;;14.93;81.85
62103;BME280;48077;48.104;11.702;2023-07-08T05:00:37;95739.59;;;14.90;82.18
62103;BME280;48077;48.104;11.702;2023-07-08T05:03:01;95752.81;;;14.96;81.30
62103;BME280;48077;48.104;11.702;2023-07-08T05:05:25;95755.59;;;15.07;81.74
62103;BME280;48077;48.104;11.702;2023-07-08T05:07:49;95762.63;;;15.13;80.52
62103;BME280;48077;48.104;11.702;2023-07-08T05:10:12;95759.19;;;15.17;79.67
62103;BME280;48077;48.104;11.702;2023-07-08T05:12:36;95767.56;;;15.21;79.22
62103;BME280;48077;48.104;11.702;2023-07-08T05:15:00;95761.41;;;15.26;78.58
62103;BME280;48077;48.104;11.702;2023-07-08T05:17:23;95758.75;;;15.31;79.24
62103;BME280;48077;48.104;11.702;2023-07-08T05:19:48;95760.13;;;15.33;80.59
62103;BME280;48077;48.104;11.702;2023-07-08T05:22:14;95763.09;;;15.37;81.36
62103;BME280;48077;48.104;11.702;2023-07-08T05:24:38;95756.69;;;15.38;81.82
62103;BME280;48077;48.104;11.702;2023-07-08T05:27:01;95769.91;;;15.50;81.34
62103;BME280;48077;48.104;11.702;2023-07-08T05:29:25;95768.06;;;15.50;81.13
62103;BME280;48077;48.104;11.702;2023-07-08T05:31:49;95776.72;;;15.57;80.18
62103;BME280;48077;48.104;11.702;2023-07-08T05:34:12;95772.69;;;15.60;79.19
62103;BME280;48077;48.104;11.702;2023-07-08T05:36:36;95787.03;;;15.71;78.45
62103;BME280;48077;48.104;11.702;2023-07-08T05:38:59;95780.63;;;15.77;78.28
62103;BME280;48077;48.104;11.702;2023-07-08T05:41:22;95771.59;;;15.88;78.44
62103;BME280;48077;48.104;11.702;2023-07-08T05:43:46;95756.53;;;15.92;78.19
62103;BME280;48077;48.104;11.702;2023-07-08T05:46:09;95762.00;;;16.08;78.48
62103;BME280;48077;48.104;11.702;2023-07-08T05:48:32;95754.28;;;16.22;77.36
62103;BME280;48077;48.104;11.702;2023-07-08T05:50:56;95752.97;;;16.29;75.38
62103;BME280;48077;48.104;11.702;2023-07-08T05:53:20;95756.56;;;16.50;73.33
62103;BME280;48077;48.104;11.702;2023-07-08T05:55:43;95751.75;;;16.63;73.07
62103;BME280;48077;48.104;11.702;2023-07-08T05:58:10;95744.50;;;16.68;74.48
62103;BME280;48077;48.104;11.702;2023-07-08T06:00:33;95756.44;;;16.88;72.33
62103;BME280;48077;48.104;11.702;2023-07-08T06:02:56;95746.75;;;16.97;72.30
62103;BME280;48077;48.104;11.702;2023-07-08T06:05:20;95760.50;;;17.16;71.03
62103;BME280;48077;48.104;11.702;2023-07-08T06:07:43;95753.25;;;17.22;70.56
62103;BME280;48077;48.104;11.702;2023-07-08T06:10:07;95755.97;;;17.42;69.66
62103;BME280;48077;48.104;11.702;2023-07-08T06:12:30;95767.00;;;17.56;70.07
62103;BME280;48077;48.104;11.702;2023-07-08T06:14:54;95767.00;;;17.66;70.89
62103;BME280;48077;48.104;11.702;2023-07-08T06:17:17;95764.31;;;17.71;70.59
62103;BME280;48077;48.104;11.702;2023-07-08T06:19:40;95769.69;;;17.82;69.60
62103;BME280;48077;48.104;11.702;2023-07-08T06:22:04;95771.34;;;17.88;69.77
62103;BME280;48077;48.104;11.702;2023-07-08T06:24:28;95755.94;;;17.93;70.37
62103;BME280;48077;48.104;11.702;2023-07-08T06:26:51;95765.13;;;18.03;70.80
62103;BME280;48077;48.104;11.702;2023-07-08T06:29:14;95755.13;;;18.03;69.88
62103;BME280;48077;48.104;11.702;2023-07-08T06:31:39;95756.16;;;18.17;70.19
62103;BME280;48077;48.104;11.702;2023-07-08T06:34:02;95763.69;;;18.26;69.56
62103;BME280;48077;48.104;11.702;2023-07-08T06:36:25;95758.81;;;18.38;69.04
62103;BME280;48077;48.104;11.702;2023-07-08T06:38:49;95750.09;;;18.51;68.79
62103;BME280;48077;48.104;11.702;2023-07-08T06:41:12;95753.56;;;18.62;68.17
62103;BME280;48077;48.104;11.702;2023-07-08T06:43:35;95759.19;;;18.71;66.75
62103;BME280;48077;48.104;11.702;2023-07-08T06:45:59;95766.75;;;18.79;65.92
62103;BME280;48077;48.104;11.702;2023-07-08T06:48:22;95759.16;;;18.86;66.04
62103;BME280;48077;48.104;11.702;2023-07-08T06:50:48;95755.88;;;18.94;66.44
62103;BME280;48077;48.104;11.702;2023-07-08T06:53:11;95765.78;;;19.09;66.91
62103;BME280;48077;48.104;11.702;2023-07-08T06:55:35;95752.00;;;19.11;67.33
62103;BME280;48077;48.104;11.702;2023-07-08T06:57:58;95766.78;;;19.24;66.15
62103;BME280;48077;48.104;11.702;2023-07-08T07:00:21;95761.31;;;19.29;64.92
62103;BME280;48077;48.104;11.702;2023-07-08T07:02:45;95766.38;;;19.40;65.03
62103;BME280;48077;48.104;11.702;2023-07-08T07:05:09;95769.06;;;19.40;64.16
62103;BME280;48077;48.104;11.702;2023-07-08T07:07:32;95762.00;;;19.45;63.36
62103;BME280;48077;48.104;11.702;2023-07-08T07:09:57;95756.34;;;19.46;63.52
62103;BME280;48077;48.104;11.702;2023-07-08T07:12:21;95757.84;;;19.57;63.81
62103;BME280;48077;48.104;11.702;2023-07-08T07:14:44;95773.72;;;19.69;63.22
62103;BME280;48077;48.104;11.702;2023-07-08T07:17:08;95763.97;;;19.68;63.26
62103;BME280;48077;48.104;11.702;2023-07-08T07:19:31;95770.66;;;19.81;63.30
62103;BME280;48077;48.104;11.702;2023-07-08T07:21:54;95769.78;;;19.91;61.72
62103;BME280;48077;48.104;11.702;2023-07-08T07:24:18;95755.97;;;19.92;61.98
62103;BME280;48077;48.104;11.702;2023-07-08T07:26:41;95757.19;;;20.05;61.98
62103;BME280;48077;48.104;11.702;2023-07-08T07:29:05;95755.94;;;20.21;60.36
62103;BME280;48077;48.104;11.702;2023-07-08T07:31:28;95750.22;;;20.23;61.10
62103;BME280;48077;48.104;11.702;2023-07-08T07:33:52;95764.75;;;20.32;61.07
62103;BME280;48077;48.104;11.702;2023-07-08T07:36:16;95769.53;;;20.40;60.98
62103;BME280;48077;48.104;11.702;2023-07-08T07:38:39;95766.47;;;20.47;60.66
62103;BME280;48077;48.104;11.702;2023-07-08T07:41:02;95774.56;;;20.52;58.80
62103;BME280;48077;48.104;11.702;2023-07-08T07:43:29;95773.69;;;20.57;58.78
62103;BME280;48077;48.104;11.702;2023-07-08T07:45:52;95786.97;;;20.58;58.42
62103;BME280;48077;48.104;11.702;2023-07-08T07:48:15;95782.34;;;20.59;58.70
62103;BME280;48077;48.104;11.702;2023-07-08T07:50:39;95789.59;;;20.64;58.79
62103;BME280;48077;48.104;11.702;2023-07-08T07:53:03;95793.44;;;20.63;57.83
62103;BME280;48077;48.104;11.702;2023-07-08T07:55:26;95804.63;;;20.75;58.14
62103;BME280;48077;48.104;11.702;2023-07-08T07:57:49;95812.13;;;20.83;58.39
62103;BME280;48077;48.104;11.702;2023-07-08T08:00:13;95806.66;;;20.88;58.51
62103;BME280;48077;48.104;11.702;2023-07-08T08:02:41;95807.97;;;20.91;58.46
62103;BME280;48077;48.104;11.702;2023-07-08T08:05:04;95810.28;;;21.02;58.09
62103;BME280;48077;48.104;11.702;2023-07-08T08:07:28;95813.56;;;21.18;58.19
62103;BME280;48077;48.104;11.702;2023-07-08T08:09:51;95817.25;;;21.28;56.73
62103;BME280;48077;48.104;11.702;2023-07-08T08:12:14;95823.63;;;21.37;57.31
62103;BME280;48077;48.104;11.702;2023-07-08T08:14:38;95808.63;;;21.45;57.18
62103;BME280;48077;48.104;11.702;2023-07-08T08:17:02;95819.63;;;21.53;55.84
62103;BME280;48077;48.104;11.702;2023-07-08T08:19:25;95833.25;;;21.67;55.87
62103;BME280;48077;48.104;11.702;2023-07-08T08:21:49;95837.28;;;21.70;53.58
62103;BME280;48077;48.104;11.702;2023-07-08T08:24:12;95845.34;;;21.75;54.11
62103;BME280;48077;48.104;11.702;2023-07-08T08:26:35;95839.09;;;21.74;54.14
62103;BME280;48077;48.104;11.702;2023-07-08T08:28:59;95834.19;;;21.76;54.05
62103;BME280;48077;48.104;11.702;2023-07-08T08:31:24;95840.41;;;21.77;54.18
62103;BME280;48077;48.104;11.702;2023-07-08T08:33:48;95843.97;;;21.77;54.65
62103;BME280;48077;48.104;11.702;2023-07-08T08:36:11;95852.28;;;21.81;55.16
62103;BME280;48077;48.104;11.702;2023-07-08T08:38:35;95856.34;;;21.83;55.11
62103;BME280;48077;48.104;11.702;2023-07-08T08:41:02;95836.97;;;21.90;52.86
62103;BME280;48077;48.104;11.702;2023-07-08T08:43:36;95845.34;;;22.08;53.63
62103;BME280;48077;48.104;11.702;2023-07-08T08:46:23;95838.63;;;22.05;52.44
62103;BME280;48077;48.104;11.702;2023-07-08T08:49:05;95849.38;;;22.10;51.58
62103;BME280;48077;48.104;11.702;2023-07-08T08:51:32;95843.38;;;22.13;51.05
62103;BME280;48077;48.104;11.702;2023-07-08T08:53:57;95848.03;;;22.27;52.73
62103;BME280;48077;48.104;11.702;2023-07-08T08:56:27;95847.69;;;22.47;53.14
62103;BME280;48077;48.104;11.702;2023-07-08T09:01:20;95847.31;;;22.68;51.73
62103;BME280;48077;48.104;11.702;2023-07-08T09:03:59;95836.22;;;22.64;50.49
62103;BME280;48077;48.104;11.702;2023-07-08T09:06:29;95844.38;;;22.64;50.94
62103;BME280;48077;48.104;11.702;2023-07-08T09:08:56;95848.22;;;22.63;51.75
62103;BME280;48077;48.104;11.702;2023-07-08T09:11:40;95843.47;;;22.69;51.75
62103;BME280;48077;48.104;11.702;2023-07-08T09:14:25;95848.94;;;22.96;52.06
62103;BME280;48077;48.104;11.702;2023-07-08T09:20:20;95846.41;;;23.14;48.86
62103;BME280;48077;48.104;11.702;2023-07-08T09:25:44;95848.72;;;23.20;49.52
62103;BME280;48077;48.104;11.702;2023-07-08T09:28:09;95841.19;;;23.17;49.11
62103;BME280;48077;48.104;11.702;2023-07-08T09:30:35;95858.66;;;23.39;49.34
62103;BME280;48077;48.104;11.702;2023-07-08T09:33:03;95857.72;;;23.57;49.79
62103;BME280;48077;48.104;11.702;2023-07-08T09:35:37;95853.97;;;23.67;49.43
62103;BME280;48077;48.104;11.702;2023-07-08T09:38:06;95860.16;;;23.59;47.59
62103;BME280;48077;48.104;11.702;2023-07-08T09:40:32;95855.13;;;23.52;48.58
62103;BME280;48077;48.104;11.702;2023-07-08T09:43:05;95849.44;;;23.62;48.15
62103;BME280;48077;48.104;11.702;2023-07-08T09:45:42;95856.91;;;23.93;49.66
62103;BME280;48077;48.104;11.702;2023-07-08T09:48:21;95850.78;;;24.10;48.39
62103;BME280;48077;48.104;11.702;2023-07-08T09:50:47;95842.34;;;24.20;47.45
62103;BME280;48077;48.104;11.702;2023-07-08T09:53:12;95842.03;;;24.22;45.85
62103;BME280;48077;48.104;11.702;2023-07-08T09:55:36;95849.31;;;24.35;45.48
62103;BME280;48077;48.104;11.702;2023-07-08T09:57:59;95837.16;;;24.41;45.50
62103;BME280;48077;48.104;11.702;2023-07-08T10:00:32;95838.28;;;24.63;45.01
62103;BME280;48077;48.104;11.702;2023-07-08T10:02:58;95856.16;;;24.78;45.21
62103;BME280;48077;48.104;11.702;2023-07-08T10:05:34;95857.44;;;24.80;43.80
62103;BME280;48077;48.104;11.702;2023-07-08T10:07:59;95858.13;;;24.95;43.46
62103;BME280;48077;48.104;11.702;2023-07-08T10:10:52;95803.47;;;24.69;42.83
62103;BME280;48077;48.104;11.702;2023-07-08T10:13:40;95854.56;;;25.26;42.76
62103;BME280;48077;48.104;11.702;2023-07-08T10:18:38;95860.84;;;25.43;42.64
62103;BME280;48077;48.104;11.702;2023-07-08T10:21:34;95867.94;;;25.44;44.30
62103;BME280;48077;48.104;11.702;2023-07-08T10:32:51;95879.38;;;25.81;43.66
62103;BME280;48077;48.104;11.702;2023-07-08T10:35:42;95876.94;;;25.89;40.79
62103;BME280;48077;48.104;11.702;2023-07-08T10:38:25;95870.41;;;25.98;40.74
62103;BME280;48077;48.104;11.702;2023-07-08T10:49:06;95874.38;;;26.36;39.50
62103;BME280;48077;48.104;11.702;2023-07-08T10:51:41;95866.47;;;26.43;38.98
62103;BME280;48077;48.104;11.702;2023-07-08T10:57:46;95870.47;;;26.63;39.46
62103;BME280;48077;48.104;11.702;2023-07-08T11:00:30;95866.56;;;26.81;38.32
62103;BME280;48077;48.104;11.702;2023-07-08T11:05:59;95862.81;;;27.54;37.69
62103;BME280;48077;48.104;11.702;2023-07-08T11:08:45;95853.19;;;27.48;37.24
62103;BME280;48077;48.104;11.702;2023-07-08T11:11:34;95849.03;;;27.42;38.34
62103;BME280;48077;48.104;11.702;2023-07-08T11:14:17;95855.09;;;27.48;38.39
62103;BME280;48077;48.104;11.702;2023-07-08T11:17:03;95853.50;;;27.47;37.95
62103;BME280;48077;48.104;11.702;2023-07-08T11:19:38;95856.25;;;27.47;38.30
62103;BME280;48077;48.104;11.702;2023-07-08T11:22:09;95860.06;;;27.54;38.17
62103;BME280;48077;48.104;11.702;2023-07-08T11:24:48;95848.22;;;27.41;35.83
62103;BME280;48077;48.104;11.702;2023-07-08T11:27:20;95854.97;;;27.44;36.11
62103;BME280;48077;48.104;11.702;2023-07-08T11:32:34;95842.47;;;27.76;35.31
62103;BME280;48077;48.104;11.702;2023-07-08T11:35:00;95840.50;;;28.07;35.64
62103;BME280;48077;48.104;11.702;2023-07-08T11:37:25;95852.22;;;28.28;38.36
62103;BME280;48077;48.104;11.702;2023-07-08T11:45:26;95845.25;;;28.64;34.25
62103;BME280;48077;48.104;11.702;2023-07-08T11:47:50;95844.47;;;28.88;34.80
62103;BME280;48077;48.104;11.702;2023-07-08T11:52:51;95834.31;;;29.13;33.44
62103;BME280;48077;48.104;11.702;2023-07-08T11:55:27;95841.97;;;29.08;31.98
62103;BME280;48077;48.104;11.702;2023-07-08T11:57:59;95829.97;;;28.42;31.74
62103;BME280;48077;48.104;11.702;2023-07-08T12:00:24;95831.16;;;28.20;32.36
62103;BME280;48077;48.104;11.702;2023-07-08T12:02:52;95827.09;;;28.38;32.67
62103;BME280;48077;48.104;11.702;2023-07-08T12:05:16;95821.13;;;28.57;34.91
62103;BME280;48077;48.104;11.702;2023-07-08T12:07:52;95831.66;;;28.92;32.65
62103;BME280;48077;48.104;11.702;2023-07-08T12:10:26;95818.38;;;29.43;30.96
62103;BME280;48077;48.104;11.702;2023-07-08T12:12:51;95829.91;;;29.74;29.71
62103;BME280;48077;48.104;11.702;2023-07-08T12:15:25;95822.91;;;29.76;29.12
62103;BME280;48077;48.104;11.702;2023-07-08T12:17:51;95823.34;;;29.78;29.38
62103;BME280;48077;48.104;11.702;2023-07-08T12:20:28;95826.22;;;29.82;31.79
62103;BME280;48077;48.104;11.702;2023-07-08T12:22:52;95819.22;;;29.84;29.31
62103;BME280;48077;48.104;11.702;2023-07-08T12:25:18;95813.13;;;29.91;29.46
62103;BME280;48077;48.104;11.702;2023-07-08T12:27:44;95818.00;;;30.26;29.58
62103;BME280;48077;48.104;11.702;2023-07-08T12:30:10;95822.69;;;30.70;28.07
62103;BME280;48077;48.104;11.702;2023-07-08T12:32:34;95815.69;;;31.04;27.47
62103;BME280;48077;48.104;11.702;2023-07-08T12:34:57;95815.47;;;31.44;28.72
62103;BME280;48077;48.104;11.702;2023-07-08T12:37:21;95821.31;;;31.43;28.11
62103;BME280;48077;48.104;11.702;2023-07-08T12:39:54;95816.78;;;31.51;27.70
62103;BME280;48077;48.104;11.702;2023-07-08T12:42:17;95813.25;;;31.70;29.47
62103;BME280;48077;48.104;11.702;2023-07-08T12:44:41;95810.56;;;31.93;28.59
62103;BME280;48077;48.104;11.702;2023-07-08T12:47:07;95811.38;;;31.74;28.42
62103;BME280;48077;48.104;11.702;2023-07-08T12:49:31;95812.81;;;31.48;28.04
62103;BME280;48077;48.104;11.702;2023-07-08T12:51:54;95821.03;;;30.97;30.08
62103;BME280;48077;48.104;11.702;2023-07-08T12:54:18;95812.75;;;31.13;29.29
62103;BME280;48077;48.104;11.702;2023-07-08T12:56:45;95815.13;;;31.30;28.81
62103;BME280;48077;48.104;11.702;2023-07-08T12:59:10;95820.84;;;31.05;27.78
62103;BME280;48077;48.104;11.702;2023-07-08T13:01:35;95808.75;;;30.78;28.05
62103;BME280;48077;48.104;11.702;2023-07-08T13:04:02;95816.38;;;30.85;29.30
62103;BME280;48077;48.104;11.702;2023-07-08T13:06:29;95816.53;;;31.40;28.84
62103;BME280;48077;48.104;11.702;2023-07-08T13:08:53;95812.34;;;31.81;28.28
62103;BME280;48077;48.104;11.702;2023-07-08T13:11:21;95805.50;;;32.14;27.20
62103;BME280;48077;48.104;11.702;2023-07-08T13:13:50;95797.84;;;32.46;26.69
62103;BME280;48077;48.104;11.702;2023-07-08T13:16:14;95814.72;;;32.87;27.04
62103;BME280;48077;48.104;11.702;2023-07-08T13:18:40;95814.75;;;33.11;26.34
62103;BME280;48077;48.104;11.702;2023-07-08T13:21:05;95816.75;;;33.14;26.68
62103;BME280;48077;48.104;11.702;2023-07-08T13:23:30;95821.72;;;33.31;27.94
62103;BME280;48077;48.104;11.702;2023-07-08T13:25:54;95815.72;;;33.52;25.05
62103;BME280;48077;48.104;11.702;2023-07-08T13:28:22;95828.50;;;33.60;24.56
62103;BME280;48077;48.104;11.702;2023-07-08T13:30:59;95825.63;;;33.53;25.25
62103;BME280;48077;48.104;11.702;2023-07-08T13:33:23;95814.00;;;33.40;25.81
62103;BME280;48077;48.104;11.702;2023-07-08T13:35:48;95831.84;;;33.73;27.47
62103;BME280;48077;48.104;11.702;2023-07-08T13:38:18;95827.81;;;33.67;26.14